Time;durP1;ratioP1;P1;durP2;ratioP2;P2;SDS_P1;SDS_P2;PMS_P1;PMS_P2;Temp;Humidity;BMP_temperature;BMP_pressure;BME280_temperature;BME280_humidity;BME280_pressure;Samples;Min_cycle;Max_cycle;Signal;HPM_P1;HPM_P2
2022/09/09 00:01:13;;;;;;;4.78;1.60;;;17.30;99.90;;;;;;5031718;28;20026;-42
2022/09/09 00:03:51;;;;;;;1.42;1.23;;;17.20;99.90;;;;;;5031445;28;20090;-43
2022/09/09 00:06:25;;;;;;;4.80;1.10;;;17.10;99.90;;;;;;5031625;28;20032;-43
2022/09/09 00:09:15;;;;;;;7.25;1.98;;;17.10;99.90;;;;;;5031448;28;20505;-44
2022/09/09 00:11:59;;;;;;;2.75;1.23;;;17.10;99.90;;;;;;5031679;28;20054;-46
2022/09/09 00:15:02;;;;;;;4.90;1.33;;;17.00;99.90;;;;;;5031648;28;20033;-45
2022/09/09 00:17:27;;;;;;;2.85;1.48;;;17.00;99.90;;;;;;5031614;28;20032;-44
2022/09/09 00:20:12;;;;;;;3.72;1.50;;;16.90;99.90;;;;;;5031362;28;20021;-42
2022/09/09 00:22:43;;;;;;;4.47;1.27;;;16.90;99.90;;;;;;5031227;28;20545;-46
2022/09/09 00:25:16;;;;;;;2.75;1.20;;;16.90;99.90;;;;;;5031507;28;20116;-43
2022/09/09 00:27:46;;;;;;;3.03;1.35;;;16.90;99.90;;;;;;5031420;28;20436;-43
2022/09/09 00:30:16;;;;;;;8.20;1.38;;;16.90;99.90;;;;;;5031384;28;20021;-43
2022/09/09 00:32:43;;;;;;;2.08;1.42;;;16.80;99.90;;;;;;5031134;28;20060;-42
2022/09/09 00:35:17;;;;;;;10.65;1.50;;;16.80;99.90;;;;;;5031294;28;20029;-45
2022/09/09 00:37:45;;;;;;;3.35;1.45;;;16.70;99.90;;;;;;5031838;28;20134;-43
2022/09/09 00:40:33;;;;;;;7.75;2.58;;;16.80;99.90;;;;;;5030092;28;20124;-43
2022/09/09 00:43:21;;;;;;;5.38;1.48;;;16.70;99.90;;;;;;5031166;28;20100;-41
2022/09/09 00:45:57;;;;;;;3.97;1.85;;;16.70;99.90;;;;;;5031274;28;20054;-45
2022/09/09 00:48:43;;;;;;;3.20;1.90;;;16.60;99.90;;;;;;5031437;28;20092;-44
2022/09/09 00:51:15;;;;;;;3.22;1.75;;;16.50;99.90;;;;;;5035315;28;20029;-44
2022/09/09 00:54:06;;;;;;;5.70;2.65;;;16.50;99.90;;;;;;5034911;28;20436;-43
2022/09/09 00:56:42;;;;;;;2.83;1.70;;;16.50;99.90;;;;;;5035243;28;20025;-42
2022/09/09 00:59:10;;;;;;;4.25;2.38;;;16.40;99.90;;;;;;5017338;28;20052;-44
2022/09/09 01:01:36;;;;;;;7.85;2.47;;;16.40;99.90;;;;;;5035173;28;20076;-44
2022/09/09 01:04:10;;;;;;;6.47;1.98;;;16.30;99.90;;;;;;5034971;28;20034;-43
2022/09/09 01:06:38;;;;;;;2.08;1.52;;;16.30;99.90;;;;;;5034944;28;20052;-43
2022/09/09 01:09:25;;;;;;;4.80;2.05;;;16.30;99.90;;;;;;5034657;28;20025;-47
2022/09/09 01:12:10;;;;;;;3.83;1.85;;;16.30;99.90;;;;;;5016870;28;20040;-49
2022/09/09 01:14:38;;;;;;;6.93;2.15;;;16.20;99.90;;;;;;5034925;28;20401;-44
2022/09/09 01:17:35;;;;;;;2.88;1.65;;;16.20;99.90;;;;;;5034978;28;20417;-46
2022/09/09 01:20:27;;;;;;;4.25;2.10;;;16.20;99.90;;;;;;5035086;28;20068;-44
2022/09/09 01:23:19;;;;;;;5.10;1.80;;;16.20;99.90;;;;;;5034820;28;20556;-46
2022/09/09 01:25:56;;;;;;;4.50;1.38;;;16.20;99.90;;;;;;5034623;28;20104;-45
2022/09/09 01:28:27;;;;;;;4.68;2.08;;;16.20;99.90;;;;;;5034534;28;20084;-43
2022/09/09 01:30:54;;;;;;;6.38;1.92;;;16.20;99.90;;;;;;5034830;28;20512;-43
2022/09/09 01:33:20;;;;;;;4.55;1.85;;;16.20;99.90;;;;;;5034096;28;20025;-45
2022/09/09 01:36:26;;;;;;;8.30;2.50;;;16.20;99.90;;;;;;5034495;28;20079;-42
2022/09/09 01:38:52;;;;;;;4.35;2.08;;;16.20;99.90;;;;;;5034187;28;20040;-45
2022/09/09 01:41:18;;;;;;;6.18;1.70;;;16.20;99.90;;;;;;5034349;28;20033;-44
2022/09/09 01:43:44;;;;;;;8.30;1.90;;;16.20;99.90;;;;;;5034223;28;20032;-44
2022/09/09 01:46:11;;;;;;;5.75;2.38;;;16.20;99.90;;;;;;5034344;28;20029;-48
2022/09/09 01:48:37;;;;;;;5.35;2.35;;;16.20;99.90;;;;;;5034161;28;20464;-44
2022/09/09 01:51:02;;;;;;;4.38;1.80;;;16.20;99.90;;;;;;5034334;28;20030;-43
2022/09/09 01:53:28;;;;;;;4.88;1.88;;;16.20;99.90;;;;;;5033725;28;20078;-43
2022/09/09 01:56:16;;;;;;;6.38;3.10;;;16.20;99.90;;;;;;5034080;28;20024;-47
2022/09/09 01:59:14;;;;;;;7.80;2.63;;;16.20;99.90;;;;;;5033743;28;20504;-45
2022/09/09 02:02:15;;;;;;;5.18;2.10;;;16.20;99.90;;;;;;5033209;28;20022;-46
2022/09/09 02:04:56;;;;;;;3.42;2.00;;;16.20;99.90;;;;;;5034353;28;20448;-47
2022/09/09 02:07:37;;;;;;;4.47;2.10;;;16.10;99.90;;;;;;5033883;28;20032;-44
2022/09/09 02:10:16;;;;;;;5.45;2.28;;;16.10;99.90;;;;;;5033730;28;20034;-45
2022/09/09 02:12:46;;;;;;;4.25;2.00;;;16.10;99.90;;;;;;5033574;28;20025;-43
2022/09/09 02:15:30;;;;;;;9.90;3.72;;;16.00;99.90;;;;;;5033663;28;20026;-44
2022/09/09 02:17:58;;;;;;;3.92;1.92;;;16.10;99.90;;;;;;5034176;28;20372;-44
2022/09/09 02:20:27;;;;;;;7.03;2.88;;;16.10;99.90;;;;;;5033527;28;20142;-44
2022/09/09 02:22:53;;;;;;;8.00;2.20;;;16.10;99.90;;;;;;5033362;28;20040;-46
2022/09/09 02:25:23;;;;;;;6.75;2.75;;;16.10;99.90;;;;;;5033468;28;20096;-45
2022/09/09 02:27:51;;;;;;;4.15;2.60;;;16.20;99.90;;;;;;5033465;28;20088;-43
2022/09/09 02:30:18;;;;;;;7.60;3.00;;;16.20;99.90;;;;;;5033319;28;20115;-45
2022/09/09 02:32:47;;;;;;;5.78;3.20;;;16.30;99.90;;;;;;5033117;28;20072;-42
2022/09/09 02:35:16;;;;;;;4.25;2.30;;;16.30;99.90;;;;;;5033564;28;20029;-43
2022/09/09 02:37:46;;;;;;;5.13;2.28;;;16.30;99.90;;;;;;5033332;28;20104;-44
2022/09/09 02:40:13;;;;;;;3.72;2.47;;;16.30;99.90;;;;;;5033193;28;20018;-44
2022/09/09 02:42:44;;;;;;;3.63;2.28;;;16.30;99.90;;;;;;5032930;28;20037;-44
2022/09/09 02:45:12;;;;;;;15.02;2.40;;;16.30;99.90;;;;;;5033212;28;20025;-43
2022/09/09 02:47:48;;;;;;;8.02;3.20;;;16.40;99.90;;;;;;5033087;28;20467;-44
2022/09/09 02:50:23;;;;;;;4.07;1.73;;;16.40;99.90;;;;;;5033087;28;20026;-45
2022/09/09 02:53:10;;;;;;;2.38;1.63;;;16.50;99.90;;;;;;5032888;28;20022;-44
2022/09/09 02:55:47;;;;;;;5.90;1.88;;;16.50;99.90;;;;;;5032920;28;20400;-45
2022/09/09 02:58:19;;;;;;;9.93;2.35;;;16.50;99.90;;;;;;5032795;28;20508;-45
2022/09/09 03:00:50;;;;;;;5.13;2.17;;;16.50;99.90;;;;;;5033147;28;20088;-45
2022/09/09 03:03:17;;;;;;;4.65;2.42;;;16.40;99.90;;;;;;5032900;28;20017;-45
2022/09/09 03:05:44;;;;;;;7.32;2.10;;;16.40;99.90;;;;;;5032719;28;20024;-44
2022/09/09 03:08:10;;;;;;;4.80;2.80;;;16.40;99.90;;;;;;5032449;28;20501;-45
2022/09/09 03:10:36;;;;;;;3.28;1.83;;;16.30;99.90;;;;;;5032639;28;20068;-44
2022/09/09 03:13:04;;;;;;;7.03;2.08;;;16.40;99.90;;;;;;5031324;28;20366;-41
2022/09/09 03:15:30;;;;;;;3.95;1.73;;;16.30;99.90;;;;;;5032467;28;20396;-44
2022/09/09 03:17:57;;;;;;;6.78;2.58;;;16.30;99.90;;;;;;5032454;28;20429;-44
2022/09/09 03:20:28;;;;;;;4.55;1.65;;;16.30;99.90;;;;;;5014573;28;20053;-47
2022/09/09 03:22:53;;;;;;;4.05;2.10;;;16.20;99.90;;;;;;5032057;28;20025;-44
2022/09/09 03:25:20;;;;;;;5.95;1.85;;;16.20;99.90;;;;;;5032277;28;20024;-44
2022/09/09 03:27:45;;;;;;;6.03;2.20;;;16.20;99.90;;;;;;5032227;28;20036;-47
2022/09/09 03:30:11;;;;;;;8.43;1.70;;;16.30;99.90;;;;;;5032216;28;20033;-45
2022/09/09 03:32:37;;;;;;;4.53;1.70;;;16.30;99.90;;;;;;5031911;28;20018;-44
2022/09/09 03:35:03;;;;;;;8.77;2.40;;;16.30;99.90;;;;;;5032054;28;20048;-45
2022/09/09 03:37:29;;;;;;;5.10;1.58;;;16.40;99.90;;;;;;5032422;28;20026;-45
2022/09/09 03:39:54;;;;;;;4.68;2.20;;;16.40;99.90;;;;;;5031931;28;20488;-44
2022/09/09 03:42:20;;;;;;;2.63;1.50;;;16.40;99.90;;;;;;5031854;28;20492;-43
2022/09/09 03:44:52;;;;;;;6.32;1.88;;;16.50;99.90;;;;;;5032142;28;20100;-42
2022/09/09 03:47:19;;;;;;;6.40;1.60;;;16.50;99.90;;;;;;5031773;28;20025;-44
2022/09/09 03:49:45;;;;;;;2.42;1.30;;;16.50;99.90;;;;;;5031842;28;20036;-46
2022/09/09 03:52:11;;;;;;;4.05;1.98;;;16.40;99.90;;;;;;5031652;28;20025;-46
2022/09/09 03:54:37;;;;;;;4.97;2.65;;;16.30;99.90;;;;;;5031780;28;20037;-44
2022/09/09 03:57:03;;;;;;;8.63;2.03;;;16.30;99.90;;;;;;5031909;28;20108;-43
2022/09/09 03:59:28;;;;;;;6.38;1.70;;;16.30;99.90;;;;;;5031084;28;20017;-44
2022/09/09 04:01:54;;;;;;;3.85;1.63;;;16.20;99.90;;;;;;5031603;28;20109;-45
2022/09/09 04:04:20;;;;;;;8.23;2.08;;;16.20;99.90;;;;;;5031580;28;20026;-45
2022/09/09 04:06:48;;;;;;;3.97;1.70;;;16.20;99.90;;;;;;5031667;28;20421;-43
2022/09/09 04:09:13;;;;;;;7.63;1.98;;;16.20;99.90;;;;;;5071816;22;20040;-45
2022/09/09 04:11:39;;;;;;;4.57;1.88;;;16.10;99.90;;;;;;5071945;28;20377;-44
2022/09/09 04:14:05;;;;;;;6.88;2.33;;;16.10;99.90;;;;;;5053307;28;20480;-47
2022/09/09 04:16:32;;;;;;;3.20;1.98;;;16.10;99.90;;;;;;5072553;28;20138;-47
2022/09/09 04:18:59;;;;;;;4.55;1.55;;;16.00;99.90;;;;;;5072170;28;20031;-42
2022/09/09 04:21:25;;;;;;;8.77;2.72;;;16.00;99.90;;;;;;5054164;28;20071;-47
2022/09/09 04:23:51;;;;;;;7.53;2.00;;;16.10;99.90;;;;;;5071309;28;20040;-43
2022/09/09 04:26:17;;;;;;;7.63;2.00;;;16.10;99.90;;;;;;5071866;28;20027;-46
2022/09/09 04:28:42;;;;;;;5.55;2.28;;;16.00;99.90;;;;;;5071647;28;20025;-43
2022/09/09 04:31:22;;;;;;;9.57;2.10;;;16.10;99.90;;;;;;5053701;28;20204;-47
2022/09/09 04:33:48;;;;;;;5.13;1.90;;;16.10;99.90;;;;;;5071287;28;20444;-39
2022/09/09 04:36:14;;;;;;;4.82;1.73;;;16.10;99.90;;;;;;5071944;28;20107;-48
2022/09/09 04:38:39;;;;;;;8.70;2.45;;;16.10;99.90;;;;;;5071492;28;20037;-42
2022/09/09 04:41:05;;;;;;;6.55;2.30;;;16.10;99.90;;;;;;5071604;28;20059;-45
2022/09/09 04:43:31;;;;;;;9.68;1.88;;;16.10;99.90;;;;;;5071395;28;20029;-44
2022/09/09 04:45:58;;;;;;;3.53;2.05;;;16.00;99.90;;;;;;5071593;28;20473;-45
2022/09/09 04:48:25;;;;;;;6.85;2.53;;;16.00;99.90;;;;;;5071309;28;20029;-50
2022/09/09 04:51:12;;;;;;;7.53;2.10;;;16.00;99.90;;;;;;5071640;28;20028;-51
2022/09/09 04:53:40;;;;;;;4.35;2.13;;;16.00;99.90;;;;;;5071193;28;20017;-48
2022/09/09 04:56:09;;;;;;;5.53;2.00;;;15.90;99.90;;;;;;5071496;28;20017;-44
2022/09/09 04:58:35;;;;;;;7.55;2.47;;;16.00;99.90;;;;;;5070786;28;20021;-47
2022/09/09 05:01:04;;;;;;;8.10;2.28;;;15.90;99.90;;;;;;5071305;28;20035;-46
2022/09/09 05:03:30;;;;;;;8.88;2.78;;;15.90;99.90;;;;;;5070945;28;20024;-47
2022/09/09 05:06:04;;;;;;;7.72;1.90;;;15.90;99.90;;;;;;5071330;28;20023;-46
2022/09/09 05:08:29;;;;;;;7.00;2.53;;;15.90;99.90;;;;;;5070984;28;20029;-46
2022/09/09 05:10:55;;;;;;;2.60;1.70;;;15.90;99.90;;;;;;5071298;28;20486;-46
2022/09/09 05:13:22;;;;;;;8.90;2.00;;;16.00;99.90;;;;;;5071003;28;20051;-46
2022/09/09 05:15:54;;;;;;;4.97;1.88;;;15.90;99.90;;;;;;5071308;28;20025;-46
2022/09/09 05:18:20;;;;;;;9.20;3.05;;;16.00;99.90;;;;;;5070927;28;20437;-45
2022/09/09 05:20:45;;;;;;;7.82;2.50;;;16.00;99.90;;;;;;5071239;28;20028;-41
2022/09/09 05:23:13;;;;;;;4.70;2.40;;;16.00;99.90;;;;;;5070812;28;20039;-44
2022/09/09 05:25:38;;;;;;;5.93;2.40;;;16.00;99.90;;;;;;5071284;28;20029;-44
2022/09/09 05:28:04;;;;;;;7.72;2.30;;;16.10;99.90;;;;;;5071533;28;20021;-46
2022/09/09 05:30:30;;;;;;;4.95;2.25;;;16.10;99.90;;;;;;5070986;28;20021;-45
2022/09/09 05:32:56;;;;;;;3.67;2.00;;;16.10;99.90;;;;;;5070629;28;20078;-46
2022/09/09 05:35:22;;;;;;;6.03;2.20;;;16.10;99.90;;;;;;5071296;28;20039;-43
2022/09/09 05:37:48;;;;;;;4.97;2.15;;;16.10;99.90;;;;;;5074302;28;20066;-44
2022/09/09 05:40:14;;;;;;;5.43;2.08;;;16.10;99.90;;;;;;5074334;28;20033;-45
2022/09/09 05:42:40;;;;;;;6.30;2.17;;;16.10;99.90;;;;;;5074408;28;20032;-43
2022/09/09 05:45:07;;;;;;;5.63;2.05;;;16.10;99.90;;;;;;5074355;28;20028;-44
2022/09/09 05:47:33;;;;;;;3.97;1.92;;;16.10;99.90;;;;;;5074206;28;20082;-42
2022/09/09 05:49:59;;;;;;;2.78;1.48;;;16.10;99.90;;;;;;5074539;28;20497;-46
2022/09/09 05:52:27;;;;;;;8.65;2.15;;;16.10;99.90;;;;;;5074009;28;20098;-47
2022/09/09 05:54:54;;;;;;;6.00;1.92;;;16.10;99.90;;;;;;5074373;28;20473;-44
2022/09/09 05:57:19;;;;;;;5.38;1.73;;;16.20;99.90;;;;;;5074030;28;20032;-42
2022/09/09 05:59:45;;;;;;;9.07;1.98;;;16.20;99.90;;;;;;5073622;28;20396;-41
2022/09/09 06:02:12;;;;;;;3.95;1.50;;;16.30;99.90;;;;;;5074308;28;20035;-43
2022/09/09 06:04:38;;;;;;;5.15;1.48;;;16.40;99.90;;;;;;5074731;28;20040;-46
2022/09/09 06:07:05;;;;;;;5.75;1.25;;;16.60;99.90;;;;;;5074641;28;20017;-44
2022/09/09 06:09:30;;;;;;;6.32;1.38;;;16.90;99.90;;;;;;5056415;28;20039;-43
2022/09/09 06:11:57;;;;;;;5.32;1.70;;;17.10;99.90;;;;;;5074170;28;20103;-40
2022/09/09 06:14:25;;;;;;;6.40;1.73;;;17.30;99.90;;;;;;5074213;28;20075;-45
2022/09/09 06:16:51;;;;;;;4.97;1.38;;;17.40;99.90;;;;;;5074118;28;20036;-45
2022/09/09 06:19:16;;;;;;;6.93;1.98;;;17.50;99.90;;;;;;5074053;28;20036;-45
2022/09/09 06:21:44;;;;;;;4.32;1.25;;;17.60;99.90;;;;;;5073928;28;20107;-44
2022/09/09 06:24:10;;;;;;;4.93;2.05;;;17.60;99.90;;;;;;5073859;28;20078;-45
2022/09/09 06:26:38;;;;;;;5.18;1.23;;;17.50;99.90;;;;;;5073738;28;20096;-42
2022/09/09 06:29:04;;;;;;;7.03;1.15;;;17.50;99.90;;;;;;5055504;28;20032;-45
2022/09/09 06:31:33;;;;;;;6.45;1.48;;;17.40;99.90;;;;;;5074105;28;20020;-43
2022/09/09 06:34:00;;;;;;;4.78;1.35;;;17.40;99.90;;;;;;5073503;28;20685;-46
2022/09/09 06:36:28;;;;;;;12.60;2.25;;;17.50;99.90;;;;;;5073561;28;20035;-48
2022/09/09 06:38:54;;;;;;;4.95;1.20;;;17.50;99.90;;;;;;5073610;28;20032;-49
2022/09/09 06:41:23;;;;;;;3.83;1.30;;;17.60;99.90;;;;;;5073342;28;20028;-43
2022/09/09 06:43:49;;;;;;;2.72;1.10;;;17.60;99.90;;;;;;5073143;28;20029;-44
2022/09/09 06:46:19;;;;;;;4.63;1.20;;;17.60;99.90;;;;;;5073616;28;20028;-45
2022/09/09 06:48:45;;;;;;;5.63;1.25;;;17.70;99.90;;;;;;5073198;28;20074;-49
2022/09/09 06:51:13;;;;;;;1.67;1.00;;;17.90;99.90;;;;;;5073265;28;20103;-44
2022/09/09 06:53:40;;;;;;;2.80;0.95;;;18.00;99.90;;;;;;5055374;28;20024;-45
2022/09/09 06:56:22;;;;;;;7.30;1.95;;;18.00;99.90;;;;;;5073317;28;20024;-42
2022/09/09 06:58:49;;;;;;;6.22;1.42;;;18.00;99.90;;;;;;5073283;28;20016;-42
2022/09/09 07:01:20;;;;;;;3.85;1.50;;;17.90;99.90;;;;;;5073294;28;20044;-45
2022/09/09 07:03:48;;;;;;;4.35;1.65;;;17.80;99.90;;;;;;5072787;28;20052;-45
2022/09/09 07:06:20;;;;;;;7.47;1.30;;;17.80;99.90;;;;;;5055739;28;20430;-45
2022/09/09 07:08:53;;;;;;;2.60;1.08;;;17.70;99.90;;;;;;5073601;28;20029;-44
2022/09/09 07:11:20;;;;;;;1.65;1.10;;;17.70;99.90;;;;;;5076892;28;20029;-43
2022/09/09 07:13:46;;;;;;;10.02;2.65;;;17.60;99.90;;;;;;5076311;28;20067;-43
2022/09/09 07:16:15;;;;;;;6.40;1.10;;;17.60;99.90;;;;;;5075891;28;20017;-48
2022/09/09 07:18:41;;;;;;;5.53;1.38;;;17.60;99.90;;;;;;5075239;28;20100;-45
2022/09/09 07:21:08;;;;;;;2.20;1.10;;;17.60;99.90;;;;;;5076363;28;20147;-46
2022/09/09 07:23:35;;;;;;;7.68;1.27;;;17.60;99.90;;;;;;5077824;28;20044;-48
2022/09/09 07:26:01;;;;;;;4.60;1.33;;;17.70;99.90;;;;;;5073152;28;20025;-47
2022/09/09 07:28:28;;;;;;;4.78;1.30;;;17.70;99.90;;;;;;5072508;28;20025;-47
2022/09/09 07:31:03;;;;;;;5.05;2.25;;;17.70;99.90;;;;;;5072436;28;20103;-44
2022/09/09 07:33:30;;;;;;;5.87;1.27;;;17.80;99.90;;;;;;5072210;28;20021;-50
2022/09/09 07:36:21;;;;;;;6.80;1.30;;;17.80;99.90;;;;;;5072463;28;20038;-46
2022/09/09 07:38:51;;;;;;;6.13;1.67;;;17.80;99.90;;;;;;5072171;28;20028;-46
2022/09/09 07:41:20;;;;;;;6.95;1.50;;;17.90;99.90;;;;;;5072380;28;20020;-44
2022/09/09 07:43:47;;;;;;;4.15;1.83;;;17.90;99.90;;;;;;5054191;28;20028;-47
2022/09/09 07:46:14;;;;;;;6.80;2.05;;;17.90;99.90;;;;;;5072194;28;20097;-47
2022/09/09 07:48:51;;;;;;;6.47;1.40;;;18.00;99.90;;;;;;5072211;28;20025;-44
2022/09/09 07:51:19;;;;;;;8.02;1.35;;;18.20;99.90;;;;;;5072727;28;20020;-44
2022/09/09 07:53:46;;;;;;;9.45;1.40;;;18.50;99.90;;;;;;5072103;28;20476;-45
2022/09/09 07:56:16;;;;;;;9.02;1.58;;;18.70;99.90;;;;;;5072164;28;20020;-50
2022/09/09 07:58:44;;;;;;;6.65;1.13;;;19.10;99.90;;;;;;5071175;28;20016;-47
2022/09/09 08:01:13;;;;;;;5.30;2.03;;;19.40;99.90;;;;;;5072121;28;20030;-45
2022/09/09 08:03:39;;;;;;;4.68;1.08;;;19.40;99.90;;;;;;5053604;28;20023;-46
2022/09/09 08:06:07;;;;;;;4.22;1.63;;;19.40;99.90;;;;;;5072113;28;20107;-44
2022/09/09 08:08:34;;;;;;;4.93;1.35;;;19.40;99.90;;;;;;5071775;28;20040;-43
2022/09/09 08:11:07;;;;;;;4.93;1.35;;;19.40;99.90;;;;;;5071997;28;20025;-47
2022/09/09 08:13:33;;;;;;;3.78;1.20;;;19.90;99.90;;;;;;5071669;28;20050;-50
2022/09/09 08:16:27;;;;;;;9.80;1.20;;;20.90;99.90;;;;;;5071959;28;20033;-46
2022/09/09 08:18:54;;;;;;;9.52;1.08;;;21.30;99.90;;;;;;5051162;28;20032;-42
2022/09/09 08:21:23;;;;;;;5.65;1.25;;;21.30;99.90;;;;;;5072012;28;20107;-43
2022/09/09 08:23:52;;;;;;;8.75;1.73;;;21.20;99.90;;;;;;5053633;28;20021;-44
2022/09/09 08:26:22;;;;;;;5.97;1.55;;;21.00;99.90;;;;;;5071982;28;20024;-45
2022/09/09 08:28:50;;;;;;;2.53;1.05;;;20.80;99.90;;;;;;5053836;28;20465;-48
2022/09/09 08:31:19;;;;;;;7.47;2.70;;;20.60;99.90;;;;;;5071695;28;20021;-44
2022/09/09 08:33:47;;;;;;;8.77;1.40;;;20.30;99.90;;;;;;5053373;28;20424;-46
2022/09/09 08:36:19;;;;;;;5.03;1.42;;;20.00;99.90;;;;;;5072068;28;20300;-42
2022/09/09 08:38:48;;;;;;;5.03;1.40;;;19.80;99.90;;;;;;5071861;28;20027;-45
2022/09/09 08:41:50;;;;;;;8.63;1.95;;;19.60;99.90;;;;;;5071548;28;20016;-47
2022/09/09 08:44:34;;;;;;;3.63;1.20;;;19.60;99.90;;;;;;5071894;28;20050;-46
2022/09/09 08:47:30;;;;;;;5.30;1.23;;;19.50;99.90;;;;;;5071827;28;20029;-48
2022/09/09 08:50:16;;;;;;;7.80;2.22;;;19.40;99.90;;;;;;5071814;28;20111;-44
2022/09/09 08:53:16;;;;;;;5.93;1.73;;;19.40;99.90;;;;;;5070847;28;20033;-43
2022/09/09 08:56:00;;;;;;;4.85;1.60;;;19.70;99.90;;;;;;5072653;28;20025;-46
2022/09/09 08:58:34;;;;;;;5.50;1.15;;;20.80;99.90;;;;;;5054009;28;20031;-44
2022/09/09 09:01:08;;;;;;;5.55;1.75;;;22.30;99.90;;;;;;5071969;28;20024;-42
2022/09/09 09:04:03;;;;;;;7.53;1.42;;;23.00;99.90;;;;;;5071939;28;20120;-43
2022/09/09 09:06:35;;;;;;;3.88;1.67;;;23.00;99.90;;;;;;5035566;28;20045;-49
2022/09/09 09:09:22;;;;;;;7.18;1.20;;;22.60;99.90;;;;;;5071661;28;20062;-48
2022/09/09 09:11:49;;;;;;;4.97;1.17;;;21.90;99.90;;;;;;5075320;28;20032;-43
2022/09/09 09:14:24;;;;;;;4.22;1.00;;;21.30;99.90;;;;;;5075412;28;20404;-43
2022/09/09 09:17:32;;;;;;;5.65;1.48;;;21.00;99.90;;;;;;5075491;28;20027;-43
2022/09/09 09:19:59;;;;;;;5.47;1.85;;;20.80;99.90;;;;;;4993315;28;20031;-43
2022/09/09 09:22:47;;;;;;;6.93;1.48;;;20.70;99.90;;;;;;4993058;28;20141;-45
2022/09/09 09:25:23;;;;;;;8.82;1.40;;;20.90;99.90;;;;;;5044915;28;20051;-43
2022/09/09 09:28:06;;;;;;;5.28;1.70;;;21.00;99.90;;;;;;5075105;28;20036;-44
2022/09/09 09:30:39;;;;;;;11.05;1.85;;;20.80;99.90;;;;;;5074965;28;20081;-45
2022/09/09 09:33:33;;;;;;;5.60;1.77;;;20.50;99.90;;;;;;5056373;28;20035;-44
2022/09/09 09:35:59;;;;;;;4.80;1.35;;;20.40;99.90;;;;;;5028292;28;20093;-43
2022/09/09 09:38:27;;;;;;;3.60;1.40;;;20.40;99.90;;;;;;5074902;28;20129;-44
2022/09/09 09:40:58;;;;;;;6.55;2.10;;;20.40;99.90;;;;;;5057194;28;20032;-48
2022/09/09 09:43:39;;;;;;;4.68;1.45;;;20.40;99.90;;;;;;5074328;28;20427;-47
2022/09/09 09:46:23;;;;;;;6.35;1.23;;;20.30;99.90;;;;;;5074691;28;20112;-48
2022/09/09 09:48:59;;;;;;;12.55;2.20;;;20.10;99.90;;;;;;5074850;28;20023;-41
2022/09/09 09:51:25;;;;;;;4.20;1.23;;;20.10;99.90;;;;;;5074565;28;20017;-47
2022/09/09 09:53:53;;;;;;;13.63;1.63;;;20.00;99.90;;;;;;5074958;28;20495;-49
2022/09/09 09:56:28;;;;;;;7.20;1.55;;;20.00;99.90;;;;;;5074810;28;20428;-42
2022/09/09 09:58:54;;;;;;;8.55;2.65;;;19.90;99.90;;;;;;5074331;28;20040;-48
2022/09/09 10:01:27;;;;;;;7.93;1.67;;;20.00;99.90;;;;;;5074432;28;20400;-45
2022/09/09 10:03:56;;;;;;;8.25;1.38;;;19.90;99.90;;;;;;5074358;28;20016;-45
2022/09/09 10:06:37;;;;;;;7.75;1.83;;;19.80;99.90;;;;;;5074612;28;20047;-46
2022/09/09 10:09:18;;;;;;;8.85;1.90;;;19.90;99.90;;;;;;5095803;22;20473;-44
2022/09/09 10:12:00;;;;;;;10.68;2.30;;;20.00;99.90;;;;;;5072033;28;20044;-45
2022/09/09 10:14:42;;;;;;;7.13;2.00;;;20.20;99.90;;;;;;5073339;28;20025;-44
2022/09/09 10:17:37;;;;;;;9.45;1.77;;;20.60;99.90;;;;;;5073922;28;20024;-43
2022/09/09 10:20:19;;;;;;;4.55;1.45;;;21.30;99.90;;;;;;5073768;28;20028;-42
2022/09/09 10:23:06;;;;;;;5.93;1.05;;;21.90;99.90;;;;;;5072853;28;20441;-42
2022/09/09 10:26:09;;;;;;;6.25;1.15;;;22.10;99.90;;;;;;5073354;28;20025;-44
2022/09/09 10:29:12;;;;;;;3.08;1.23;;;21.90;99.90;;;;;;5073493;28;20023;-44
2022/09/09 10:31:57;;;;;;;6.53;1.20;;;21.70;99.90;;;;;;5073199;28;20028;-43
2022/09/09 10:34:41;;;;;;;;;;;21.70;99.90;;;;;;5073884;28;20039;-45
2022/09/09 10:37:25;;;;;;;6.07;1.30;;;21.70;99.80;;;;;;5073300;28;20400;-43
2022/09/09 10:40:03;;;;;;;9.73;1.35;;;21.60;99.90;;;;;;5073021;28;20036;-38
2022/09/09 10:42:32;;;;;;;7.03;1.75;;;21.70;99.90;;;;;;5073006;28;20058;-43
2022/09/09 10:45:23;;;;;;;7.05;1.52;;;21.80;99.10;;;;;;5073066;28;20024;-43
2022/09/09 10:48:20;;;;;;;5.68;1.40;;;21.90;99.30;;;;;;5073336;28;20074;-44
2022/09/09 10:51:01;;;;;;;2.88;1.02;;;22.10;99.70;;;;;;5073019;28;20488;-44
2022/09/09 10:53:52;;;;;;;6.35;1.00;;;22.20;98.40;;;;;;5073708;28;20526;-43
2022/09/09 10:56:21;;;;;;;12.60;1.00;;;21.80;98.10;;;;;;5073728;28;20437;-44
2022/09/09 10:59:01;;;;;;;4.72;0.95;;;21.60;98.80;;;;;;5072625;28;20078;-48
2022/09/09 11:01:39;;;;;;;10.35;1.85;;;21.50;99.10;;;;;;5072615;28;20031;-42
2022/09/09 11:04:23;;;;;;;4.28;1.30;;;21.50;99.00;;;;;;5072635;28;20028;-45
2022/09/09 11:06:53;;;;;;;7.38;1.17;;;21.30;98.80;;;;;;5072788;28;20094;-48
2022/09/09 11:09:23;;;;;;;9.15;1.20;;;21.30;99.00;;;;;;5072693;28;20474;-47
2022/09/09 11:11:54;;;;;;;4.43;0.90;;;21.30;99.30;;;;;;5072592;28;20034;-43
2022/09/09 11:14:32;;;;;;;4.85;0.80;;;21.40;99.30;;;;;;5072598;28;20017;-46
2022/09/09 11:17:03;;;;;;;6.88;1.83;;;21.50;98.60;;;;;;5072735;28;20025;-45
2022/09/09 11:19:35;;;;;;;4.90;1.33;;;21.50;98.90;;;;;;5072332;28;20036;-44
2022/09/09 11:22:15;;;;;;;8.20;1.58;;;21.40;99.10;;;;;;5072258;28;20103;-44
2022/09/09 11:24:47;;;;;;;5.07;1.38;;;21.40;99.40;;;;;;5072424;28;20044;-44
2022/09/09 11:27:43;;;;;;;8.23;1.58;;;21.30;99.70;;;;;;5072991;28;20078;-44
2022/09/09 11:30:20;;;;;;;3.00;0.95;;;21.10;99.90;;;;;;5072164;28;20032;-45
2022/09/09 11:33:15;;;;;;;7.55;1.75;;;21.00;99.90;;;;;;5073934;28;20434;-46
2022/09/09 11:36:19;;;;;;;5.28;1.42;;;21.10;99.90;;;;;;5072704;28;20024;-46
2022/09/09 11:38:47;;;;;;;7.40;2.45;;;21.00;99.90;;;;;;5073953;28;20488;-44
2022/09/09 11:41:14;;;;;;;4.03;1.17;;;21.00;99.90;;;;;;5073063;28;20067;-49
2022/09/09 11:43:46;;;;;;;3.83;1.35;;;21.00;99.90;;;;;;5054219;28;20181;-39
2022/09/09 11:46:17;;;;;;;3.53;1.02;;;21.10;99.90;;;;;;5072030;28;20090;-49
2022/09/09 11:48:45;;;;;;;5.22;1.65;;;21.20;99.90;;;;;;5072060;28;20023;-45
2022/09/09 11:51:20;;;;;;;2.90;0.93;;;21.30;99.90;;;;;;5072069;28;20515;-47
2022/09/09 11:53:53;;;;;;;3.15;1.00;;;21.30;99.90;;;;;;5071730;28;20531;-45
2022/09/09 11:56:45;;;;;;;4.50;0.88;;;21.40;99.90;;;;;;5053921;28;20037;-41
2022/09/09 11:59:31;;;;;;;3.28;0.70;;;21.30;99.90;;;;;;5071630;28;20020;-40
2022/09/09 12:02:01;;;;;;;1.25;0.63;;;21.40;99.90;;;;;;5071481;28;20021;-41
2022/09/09 12:04:50;;;;;;;10.15;1.35;;;21.20;99.90;;;;;;5072441;28;20111;-45
2022/09/09 12:07:26;;;;;;;6.75;1.60;;;21.20;99.90;;;;;;5073434;28;20020;-44
2022/09/09 12:10:03;;;;;;;6.47;1.60;;;21.10;99.90;;;;;;5072436;28;20094;-41
2022/09/09 12:12:31;;;;;;;10.18;1.30;;;21.00;99.90;;;;;;5074801;28;20028;-43
2022/09/09 12:15:07;;;;;;;4.25;1.00;;;21.00;99.90;;;;;;5074232;28;20047;-43
2022/09/09 12:17:43;;;;;;;3.03;0.95;;;21.00;99.90;;;;;;5072684;28;20028;-45
2022/09/09 12:20:27;;;;;;;6.55;0.98;;;21.00;99.90;;;;;;5071618;28;20025;-43
2022/09/09 12:23:20;;;;;;;3.55;0.93;;;21.10;99.90;;;;;;5071468;28;20029;-43
2022/09/09 12:26:12;;;;;;;4.45;0.80;;;21.20;99.30;;;;;;5071649;28;20025;-44
2022/09/09 12:29:04;;;;;;;1.67;0.50;;;21.30;98.30;;;;;;5071638;28;20020;-45
2022/09/09 12:31:51;;;;;;;5.63;0.73;;;21.20;98.30;;;;;;5033709;28;20086;-42
2022/09/09 12:34:39;;;;;;;2.70;1.63;;;21.10;97.80;;;;;;5071616;28;20024;-46
2022/09/09 12:37:13;;;;;;;2.75;0.70;;;21.00;97.60;;;;;;5071560;28;20429;-43
2022/09/09 12:39:56;;;;;;;3.93;0.77;;;21.00;97.90;;;;;;5071474;28;20369;-45
2022/09/09 12:42:23;;;;;;;1.15;0.60;;;21.00;99.90;;;;;;5071447;28;20025;-44
2022/09/09 12:45:19;;;;;;;0.68;0.40;;;21.00;98.00;;;;;;5054017;28;20036;-38
2022/09/09 12:47:50;;;;;;;;;;;20.80;96.90;;;;;;5076032;28;20096;-43
2022/09/09 12:50:22;;;;;;;0.40;0.20;;;20.60;96.70;;;;;;5075501;28;19908;-45
2022/09/09 12:52:50;;;;;;;0.47;0.20;;;19.40;96.60;;;;;;5075368;28;20048;-39
2022/09/09 12:55:21;;;;;;;2.85;0.40;;;20.20;97.10;;;;;;5075016;28;20028;-48
2022/09/09 12:57:50;;;;;;;4.68;0.38;;;20.00;97.70;;;;;;5074684;28;20020;-44
2022/09/09 13:00:22;;;;;;;1.02;0.28;;;19.80;98.40;;;;;;5075073;28;20028;-43
2022/09/09 13:02:50;;;;;;;0.60;0.20;;;19.60;98.90;;;;;;5074896;28;20096;-39
2022/09/09 13:05:37;;;;;;;0.95;0.30;;;19.40;99.90;;;;;;5074986;28;20025;-43
2022/09/09 13:08:12;;;;;;;0.40;0.40;;;19.20;99.90;;;;;;5074416;28;20028;-45
2022/09/09 13:10:50;;;;;;;3.80;0.40;;;19.10;99.90;;;;;;5074775;28;20030;-44
2022/09/09 13:13:19;;;;;;;0.20;0.20;;;19.00;99.90;;;;;;5074454;28;20121;-43
2022/09/09 13:15:52;;;;;;;0.40;0.38;;;19.00;99.90;;;;;;5074908;28;20024;-46
2022/09/09 13:18:21;;;;;;;1.27;0.40;;;18.90;99.90;;;;;;5074765;28;20020;-44
2022/09/09 13:20:48;;;;;;;1.70;1.15;;;18.80;99.90;;;;;;5075652;28;20016;-43